Terminal Aerodrome Forecast
Issued by NWS Topeka, KS

Home | Current Version | Previous Version | Text Only | Print | Product List | Glossary Off
Versions: 1 2 3 4 5 6 7 8 9 10 11 12 13 14 15 16 17 18 19 20 21 22 23 24

000
FTUS43 KTOP 171100
TAFTOP
TAF
KTOP 171136Z 1712/1812 03005KT P6SM BKN018
     FM171500 08004KT P6SM SCT020 BKN070
     FM180000 11003KT P6SM VCSH OVC035
     FM180200 11005KT 4SM -SN BR OVC015
     FM180600 07005KT 2SM -SN BR OVC007=

USA.gov is the U.S. government's official web portal to all federal, state and local government web resources and services.